Flight Track Log - Related Links

Times and Time Zones

All times are in EDT time to prevent confusion due to time zone crossing. See the N9231H flight status page for this flight to view local times or setup timezone preferences in your user account.

Time Position Orientation Groundspeed Altitude Reporting Facility
EDT Latitude Longitude Course Direction KTS MPH feet Rate Location/Type
Thu 02:13:59 PM 25.6531 -80.4250 41° Northeast 52 60 400  Level Miami Center
Thu 02:15:06 PM 25.6644 -80.4142 41° Northeast 84 97 1,000 422 Climbing Miami Center
Thu 02:16:07 PM 25.6731 -80.4403 290° West 99 114 1,300 246 Climbing Miami Center
Thu 02:17:08 PM 25.6692 -80.4678 261° West 92 106 1,500 197 Climbing Miami Center
Thu 02:18:09 PM 25.6653 -80.4975 262° West 115 132 1,700 98 Climbing Miami Center
Thu 02:19:10 PM 25.6650 -80.5322 269° West 104 120 1,700 49 Level Miami Center
Thu 02:20:12 PM 25.6672 -80.5647 274° West 108 124 1,800 103 Climbing Miami Center
Thu 02:21:07 PM 25.6553 -80.5847 236° Southwest 88 101 1,900  Climbing Miami Center
Thu 02:22:14 PM 25.6394 -80.5742 149° Southeast 79 91 1,800  Descending Miami Center
Thu 02:23:09 PM 25.6386 -80.5508 92° East 75 86 1,900 -98 Climbing Miami Center
Thu 02:24:16 PM 25.6406 -80.5233 86° East 104 120 1,600 -328 Descending Miami Center
Thu 02:25:17 PM 25.6400 -80.5003 92° East 79 91 1,200 -414 Descending Miami Center
Thu 02:26:12 PM 25.6414 -80.4794 86° East 66 76 800 -390 Descending Miami Center
Thu 02:27:20 PM 25.6425 -80.4611 86° East 52 60 400 -353 Descending Miami Center
Thu 02:29:00 PM 25.6909 -80.5079 319° Northwest  Level FlightAware Approximate
Thu 02:36:00 PM 25.8330 -80.7124 307° West  Level FlightAware Approximate
Thu 02:37:00 PM 25.8562 -80.7465 307° West  Level FlightAware Approximate
Thu 02:38:00 PM 25.8795 -80.7806 307° West  Level FlightAware Approximate
Thu 02:39:00 PM 25.9027 -80.8148 307° West  Level FlightAware Approximate
Thu 02:40:00 PM 25.9259 -80.8489 307° West  Level FlightAware Approximate
Thu 02:41:00 PM 25.9492 -80.8830 307° West  Level FlightAware Approximate
Thu 02:42:00 PM 25.9724 -80.9172 307° West  Level FlightAware Approximate
Thu 02:43:00 PM 25.9953 -80.9516 306° West  Level FlightAware Approximate
Thu 02:44:00 PM 26.0180 -80.9862 306° West  Level FlightAware Approximate
Thu 02:45:00 PM 26.0407 -81.0208 306° West  Level FlightAware Approximate
Thu 02:46:00 PM 26.0634 -81.0554 306° West  Level FlightAware Approximate
Thu 02:47:00 PM 26.0861 -81.0900 306° West  Level FlightAware Approximate
Thu 02:48:00 PM 26.1088 -81.1247 306° West  Level FlightAware Approximate
Thu 02:49:00 PM 26.1314 -81.1593 306° West  Level FlightAware Approximate
Thu 02:50:00 PM 26.1541 -81.1940 306° West  Level FlightAware Approximate
Thu 02:51:00 PM 26.1767 -81.2287 306° West  Level FlightAware Approximate
Thu 02:52:00 PM 26.1994 -81.2634 306° West  Level FlightAware Approximate
Thu 02:53:00 PM 26.2220 -81.2981 306° West  Level FlightAware Approximate
Thu 02:54:00 PM 26.2446 -81.3328 306° West  Level FlightAware Approximate
Thu 02:55:00 PM 26.2673 -81.3676 305° West  Level FlightAware Approximate
Thu 02:56:00 PM 26.2895 -81.4026 305° West  Level FlightAware Approximate
Thu 02:57:00 PM 26.3117 -81.4377 305° West  Level FlightAware Approximate
Thu 02:58:00 PM 26.3339 -81.4728 305° West  Level FlightAware Approximate
Thu 02:59:00 PM 26.3561 -81.5079 305° West  Level FlightAware Approximate
Thu 03:00:00 PM 26.3782 -81.5431 305° West  Level FlightAware Approximate
Thu 03:01:00 PM 26.4004 -81.5782 305° West  Level FlightAware Approximate
Thu 03:02:00 PM 26.4226 -81.6133 305° West  Level FlightAware Approximate
Thu 03:03:00 PM 26.4447 -81.6485 305° West  Level FlightAware Approximate
Thu 03:04:00 PM 26.4669 -81.6837 307° West  Level FlightAware Approximate
Thu 03:05:00 PM 26.4899 -81.7182 307° West  Level FlightAware Approximate
Thu 03:06:00 PM 26.5129 -81.7527 307° West  Level FlightAware Approximate
Thu 03:07:00 PM 26.5361 -81.7870 310° West  Level FlightAware Approximate
Thu 03:08:00 PM 26.5608 -81.8200 310° West  Level FlightAware Approximate
Thu 03:09:00 PM 26.5833 -81.8500 310° West  Level FlightAware Approximate
Thu 03:10:00 PM 26.5866 -81.8633 North  Level Estimated

Login

Don't have an account? Register now (free) for customized features, flight alerts, and more!